Time;durP1;ratioP1;P1;durP2;ratioP2;P2;SDS_P1;SDS_P2;PMS_P1;PMS_P2;Temp;Humidity;BMP_temperature;BMP_pressure;BME280_temperature;BME280_humidity;BME280_pressure;Samples;Min_cycle;Max_cycle;Signal;HPM_P1;HPM_P2
2023/01/26 00:00:55;;;;;;;55.70;26.10;;;1.70;99.90;;;;;;5093113;28;20040;-74
2023/01/26 00:03:21;;;;;;;52.80;24.92;;;1.70;99.90;;;;;;5093175;28;20047;-73
2023/01/26 00:05:47;;;;;;;58.13;25.17;;;1.70;99.90;;;;;;5093439;28;20056;-73
2023/01/26 00:08:13;;;;;;;54.47;25.63;;;1.70;99.90;;;;;;5093101;28;20052;-73
2023/01/26 00:10:40;;;;;;;52.20;24.13;;;1.70;99.90;;;;;;5092750;28;20084;-73
2023/01/26 00:13:07;;;;;;;57.42;24.92;;;1.70;99.90;;;;;;5093021;28;20292;-73
2023/01/26 00:15:34;;;;;;;61.58;26.48;;;1.70;99.90;;;;;;5091540;28;20052;-74
2023/01/26 00:18:00;;;;;;;65.03;26.45;;;1.80;99.90;;;;;;5093013;28;20048;-74
2023/01/26 00:20:27;;;;;;;53.58;25.15;;;1.70;99.90;;;;;;5092790;28;20480;-74
2023/01/26 00:22:53;;;;;;;62.20;25.50;;;1.70;99.90;;;;;;5095709;28;20044;-74
2023/01/26 00:25:19;;;;;;;56.77;24.13;;;1.70;99.90;;;;;;5079397;28;20055;-74
2023/01/26 00:27:45;;;;;;;61.97;25.70;;;1.70;99.90;;;;;;5096724;28;20341;-74
2023/01/26 00:30:11;;;;;;;67.23;26.40;;;1.70;99.90;;;;;;5097026;28;20453;-73
2023/01/26 00:32:37;;;;;;;55.33;25.95;;;1.70;99.90;;;;;;5096671;28;20097;-74
2023/01/26 00:35:04;;;;;;;65.70;25.50;;;1.70;99.90;;;;;;5097086;28;20048;-74
2023/01/26 00:37:30;;;;;;;58.05;24.63;;;1.70;99.90;;;;;;5096580;28;20277;-74
2023/01/26 00:39:56;;;;;;;55.13;25.63;;;1.70;99.90;;;;;;5096134;28;20104;-73
2023/01/26 00:42:23;;;;;;;63.57;26.33;;;1.70;99.90;;;;;;5096467;28;20488;-73
2023/01/26 00:44:49;;;;;;;61.53;25.27;;;1.70;99.90;;;;;;5078768;28;20166;-73
2023/01/26 00:47:16;;;;;;;56.35;23.85;;;1.70;99.90;;;;;;5096772;28;20047;-73
2023/01/26 00:49:42;;;;;;;54.22;23.83;;;1.70;99.90;;;;;;5096325;28;20051;-73
2023/01/26 00:52:09;;;;;;;56.60;26.05;;;1.80;99.90;;;;;;5096592;28;20508;-73
2023/01/26 00:54:34;;;;;;;53.53;23.05;;;1.80;99.90;;;;;;5095036;28;20047;-74
2023/01/26 00:57:00;;;;;;;64.83;26.10;;;1.80;99.90;;;;;;5095913;28;20056;-73
2023/01/26 00:59:26;;;;;;;65.30;25.98;;;1.70;99.90;;;;;;5096442;28;20036;-73
2023/01/26 01:01:53;;;;;;;66.85;25.55;;;1.80;99.90;;;;;;5096206;28;20387;-74
2023/01/26 01:04:18;;;;;;;54.88;24.70;;;1.80;99.90;;;;;;5078174;28;20052;-74
2023/01/26 01:06:44;;;;;;;51.83;22.67;;;1.80;99.90;;;;;;5096402;28;20042;-73
2023/01/26 01:09:11;;;;;;;59.73;24.70;;;1.80;99.90;;;;;;5095073;28;20506;-73
2023/01/26 01:11:36;;;;;;;60.47;25.13;;;1.80;99.90;;;;;;5096027;28;20083;-73
2023/01/26 01:14:02;;;;;;;54.50;24.07;;;1.80;99.90;;;;;;5096234;28;20519;-73
2023/01/26 01:16:28;;;;;;;55.27;24.10;;;1.80;99.90;;;;;;5077934;28;20036;-73
2023/01/26 01:18:55;;;;;;;57.55;24.45;;;1.80;99.90;;;;;;5095908;28;20044;-73
2023/01/26 01:21:21;;;;;;;54.55;24.60;;;1.80;99.90;;;;;;5096064;28;20387;-73
2023/01/26 01:23:47;;;;;;;57.28;24.25;;;1.80;99.90;;;;;;5095752;28;20118;-73
2023/01/26 01:26:14;;;;;;;47.70;23.37;;;1.80;99.90;;;;;;5094708;28;20048;-73
2023/01/26 01:28:42;;;;;;;59.22;24.63;;;1.80;99.90;;;;;;5095392;28;20131;-74
2023/01/26 01:31:10;;;;;;;60.97;25.70;;;1.80;99.90;;;;;;5096116;28;20051;-74
2023/01/26 01:33:37;;;;;;;49.90;23.30;;;1.80;99.90;;;;;;5095285;28;20051;-74
2023/01/26 01:36:09;;;;;;;56.85;23.85;;;1.80;99.90;;;;;;5094617;28;20048;-73
2023/01/26 01:38:35;;;;;;;53.60;23.90;;;1.80;99.90;;;;;;5095632;28;20093;-74
2023/01/26 01:41:01;;;;;;;52.40;24.03;;;1.90;99.90;;;;;;5095672;28;20526;-73
2023/01/26 01:43:27;;;;;;;51.90;22.83;;;1.80;99.90;;;;;;5095264;28;20052;-73
2023/01/26 01:45:54;;;;;;;51.35;23.58;;;1.80;99.90;;;;;;5095241;28;20106;-73
2023/01/26 01:48:26;;;;;;;57.47;23.60;;;1.90;99.90;;;;;;5095510;28;20048;-73
2023/01/26 01:50:56;;;;;;;55.55;25.02;;;1.80;99.90;;;;;;5095254;28;20040;-73
2023/01/26 01:53:28;;;;;;;51.90;22.90;;;1.80;99.90;;;;;;5095401;28;20047;-73
2023/01/26 01:55:57;;;;;;;54.88;23.13;;;1.80;99.90;;;;;;5095214;28;20040;-73
2023/01/26 01:58:24;;;;;;;50.63;23.88;;;1.80;99.90;;;;;;5095348;28;20105;-73
2023/01/26 02:00:50;;;;;;;51.63;22.83;;;1.80;99.90;;;;;;5094716;28;20127;-73
2023/01/26 02:03:20;;;;;;;55.77;23.57;;;1.70;99.90;;;;;;5094276;28;20131;-73
2023/01/26 02:06:15;;;;;;;57.15;22.92;;;1.80;99.90;;;;;;5094884;28;20500;-73
2023/01/26 02:08:54;;;;;;;52.80;23.88;;;1.70;99.90;;;;;;5095078;28;20052;-73
2023/01/26 02:11:44;;;;;;;59.15;23.83;;;1.80;99.90;;;;;;5095062;28;20044;-73
2023/01/26 02:14:13;;;;;;;64.30;23.52;;;1.70;99.90;;;;;;5094330;28;20369;-73
2023/01/26 02:16:39;;;;;;;53.03;23.55;;;1.90;99.90;;;;;;5094673;28;20489;-73
2023/01/26 02:19:17;;;;;;;55.47;24.07;;;1.80;99.90;;;;;;5077415;28;20051;-73
2023/01/26 02:21:46;;;;;;;59.15;23.80;;;1.90;99.90;;;;;;5094721;28;20055;-73
2023/01/26 02:24:33;;;;;;;65.40;24.17;;;1.90;99.90;;;;;;5093965;28;20113;-73
2023/01/26 02:26:59;;;;;;;67.03;26.02;;;1.90;99.90;;;;;;5094134;28;20514;-73
2023/01/26 02:29:25;;;;;;;54.33;23.57;;;2.00;99.90;;;;;;5094529;28;20060;-73
2023/01/26 02:31:52;;;;;;;53.73;23.83;;;2.00;99.90;;;;;;5094356;28;20052;-74
2023/01/26 02:34:18;;;;;;;53.97;23.83;;;2.00;99.90;;;;;;5094625;28;20476;-73
2023/01/26 02:36:43;;;;;;;55.27;24.13;;;2.00;99.90;;;;;;5094262;28;20097;-74
2023/01/26 02:39:43;;;;;;;61.63;24.80;;;2.00;99.90;;;;;;5094867;28;20044;-73
2023/01/26 02:44:53;;;;;;;53.80;23.08;;;2.00;99.90;;;;;;5093613;28;20047;-74
2023/01/26 02:47:19;;;;;;;60.07;24.20;;;2.00;99.90;;;;;;5093086;28;20396;-74
2023/01/26 02:49:49;;;;;;;67.30;24.53;;;2.00;99.90;;;;;;5093681;28;20093;-74
2023/01/26 02:52:18;;;;;;;49.55;23.10;;;2.00;99.90;;;;;;5094374;28;20047;-73
2023/01/26 02:57:36;;;;;;;55.90;23.08;;;2.00;99.90;;;;;;5077698;28;20055;-73
2023/01/26 03:00:07;;;;;;;57.80;23.80;;;2.00;99.90;;;;;;5093959;28;20414;-73
2023/01/26 03:02:33;;;;;;;59.80;23.88;;;2.00;99.90;;;;;;5094274;28;20048;-73
2023/01/26 03:04:59;;;;;;;54.40;23.33;;;2.00;99.90;;;;;;5093818;28;20055;-73
2023/01/26 03:07:24;;;;;;;49.63;22.73;;;2.00;99.90;;;;;;5092980;28;20102;-73
2023/01/26 03:09:50;;;;;;;46.93;22.23;;;2.00;99.90;;;;;;5093771;28;20040;-74
2023/01/26 03:12:16;;;;;;;55.80;23.30;;;2.10;99.90;;;;;;5093906;28;20044;-73
2023/01/26 03:14:42;;;;;;;49.97;22.23;;;2.10;99.90;;;;;;5093900;28;20043;-73
2023/01/26 03:17:07;;;;;;;63.23;23.00;;;2.10;99.90;;;;;;5093430;28;20051;-73
2023/01/26 03:27:48;;;;;;;51.25;23.13;;;2.10;99.90;;;;;;5093333;28;20083;-73
2023/01/26 03:30:16;;;;;;;49.75;21.92;;;2.10;99.90;;;;;;5094014;28;20070;-73
2023/01/26 03:32:42;;;;;;;49.40;22.88;;;2.20;99.90;;;;;;5093543;28;20048;-73
2023/01/26 03:35:14;;;;;;;56.80;23.53;;;2.20;99.90;;;;;;5093422;28;20537;-73
2023/01/26 03:37:43;;;;;;;55.15;23.30;;;2.10;99.90;;;;;;5093429;28;20278;-73
2023/01/26 03:56:37;;;;;;;46.28;22.45;;;2.30;99.90;;;;;;5092313;28;20477;-74
2023/01/26 03:59:08;;;;;;;51.73;24.47;;;2.30;99.90;;;;;;5092129;28;20131;-74
2023/01/26 04:09:58;;;;;;;51.92;23.10;;;2.40;99.90;;;;;;5092946;28;20055;-75
2023/01/26 04:12:24;;;;;;;50.93;22.97;;;2.40;99.90;;;;;;5093075;28;20044;-74
2023/01/26 04:23:02;;;;;;;53.10;22.75;;;2.40;99.90;;;;;;5092744;28;20044;-74
2023/01/26 04:25:28;;;;;;;58.30;23.63;;;2.30;99.90;;;;;;5091742;28;20596;-74
2023/01/26 04:27:54;;;;;;;52.10;23.03;;;2.40;99.90;;;;;;5092649;28;20040;-74
2023/01/26 04:30:19;;;;;;;51.30;22.50;;;2.40;99.90;;;;;;5092586;28;20143;-74
2023/01/26 04:32:45;;;;;;;49.63;23.00;;;2.50;99.90;;;;;;5092889;28;20051;-74
2023/01/26 04:35:12;;;;;;;53.57;22.97;;;2.50;99.90;;;;;;5092655;28;20108;-75
2023/01/26 04:37:38;;;;;;;62.58;23.73;;;2.50;99.90;;;;;;5091921;28;20130;-74
2023/01/26 04:40:05;;;;;;;59.08;23.48;;;2.50;99.90;;;;;;5091532;28;20048;-74
2023/01/26 04:42:31;;;;;;;52.33;24.17;;;2.50;99.90;;;;;;5092721;28;20476;-74
2023/01/26 04:44:57;;;;;;;57.97;24.73;;;2.50;99.90;;;;;;5091586;28;20052;-74
2023/01/26 04:47:22;;;;;;;64.43;27.77;;;2.50;99.90;;;;;;5091768;28;20036;-74
2023/01/26 04:49:48;;;;;;;63.63;26.73;;;2.60;99.90;;;;;;5092574;28;20055;-74
2023/01/26 04:52:14;;;;;;;62.70;26.67;;;2.60;99.90;;;;;;5092460;28;20181;-74
2023/01/26 04:54:40;;;;;;;66.13;24.58;;;2.60;99.90;;;;;;5092659;28;20052;-74
2023/01/26 04:57:07;;;;;;;58.75;23.38;;;2.60;99.90;;;;;;5092418;28;20036;-74
2023/01/26 04:59:33;;;;;;;62.90;27.67;;;2.60;99.90;;;;;;5091523;28;20048;-74
2023/01/26 05:01:59;;;;;;;64.53;25.20;;;2.60;99.90;;;;;;5092446;28;20101;-74
2023/01/26 05:04:24;;;;;;;52.77;24.27;;;2.60;99.90;;;;;;5092560;28;20742;-74
2023/01/26 05:06:50;;;;;;;71.67;28.03;;;2.70;99.90;;;;;;5092388;28;20043;-74
2023/01/26 05:09:16;;;;;;;64.47;26.43;;;2.60;99.90;;;;;;5094365;28;20044;-74
2023/01/26 05:11:42;;;;;;;67.30;27.77;;;2.60;99.90;;;;;;5096323;28;20085;-74
2023/01/26 05:14:07;;;;;;;69.83;27.00;;;2.60;99.90;;;;;;5096021;28;20090;-75
2023/01/26 05:16:33;;;;;;;63.87;26.87;;;2.60;99.90;;;;;;5096137;28;20040;-74
2023/01/26 05:18:59;;;;;;;58.37;25.80;;;2.60;99.90;;;;;;5095981;28;20134;-75
2023/01/26 05:21:26;;;;;;;57.57;24.33;;;2.60;99.90;;;;;;5094782;28;20111;-75
2023/01/26 05:23:52;;;;;;;61.22;25.92;;;2.60;99.90;;;;;;5095185;28;20052;-75
2023/01/26 05:26:18;;;;;;;56.28;23.92;;;2.60;99.90;;;;;;5095693;28;20051;-75
2023/01/26 05:28:43;;;;;;;53.07;23.43;;;2.60;99.90;;;;;;5095682;28;20059;-75
2023/01/26 05:31:09;;;;;;;63.83;26.33;;;2.60;99.90;;;;;;5095671;28;20056;-75
2023/01/26 05:33:35;;;;;;;72.80;25.47;;;2.60;99.90;;;;;;5095885;28;20055;-75
2023/01/26 05:36:06;;;;;;;52.00;22.90;;;2.60;99.90;;;;;;5095540;28;20400;-75
2023/01/26 05:38:33;;;;;;;67.82;23.00;;;2.60;99.90;;;;;;5096063;28;20124;-75
2023/01/26 05:40:58;;;;;;;61.33;20.60;;;2.50;99.90;;;;;;5094505;28;20123;-78
2023/01/26 05:43:24;;;;;;;52.63;21.17;;;2.50;99.90;;;;;;5095661;28;20186;-75
2023/01/26 05:45:50;;;;;;;52.63;21.20;;;2.60;99.90;;;;;;5095824;28;20066;-75
2023/01/26 05:48:16;;;;;;;55.23;20.00;;;2.60;99.90;;;;;;5095348;28;20497;-75
2023/01/26 05:50:41;;;;;;;52.42;20.92;;;2.50;99.90;;;;;;5094443;28;20040;-75
2023/01/26 05:53:07;;;;;;;57.87;20.47;;;2.50;99.90;;;;;;5095313;28;20070;-75
2023/01/26 05:55:34;;;;;;;53.40;19.07;;;2.50;99.90;;;;;;5095461;28;20089;-75
2023/01/26 05:57:59;;;;;;;45.17;18.70;;;2.50;99.90;;;;;;5094220;28;20040;-76
2023/01/26 06:00:25;;;;;;;52.70;18.53;;;2.30;99.90;;;;;;5094994;28;20552;-75
2023/01/26 06:02:51;;;;;;;52.40;14.93;;;2.40;99.90;;;;;;5095166;28;20044;-75
2023/01/26 06:05:17;;;;;;;47.40;14.97;;;2.50;99.90;;;;;;5094906;28;20481;-75
2023/01/26 06:07:42;;;;;;;37.37;14.00;;;2.50;99.90;;;;;;5093862;28;20040;-76
2023/01/26 06:10:09;;;;;;;47.93;11.90;;;2.50;99.90;;;;;;5093929;28;20052;-76
2023/01/26 06:12:37;;;;;;;53.53;8.75;;;2.50;99.90;;;;;;5095306;28;20090;-75
2023/01/26 06:15:04;;;;;;;51.47;9.15;;;2.60;99.90;;;;;;5094592;28;20329;-78
2023/01/26 06:17:29;;;;;;;53.17;8.48;;;2.60;99.90;;;;;;5094708;28;20044;-75
2023/01/26 06:19:55;;;;;;;57.57;7.63;;;2.70;99.90;;;;;;5093744;28;20473;-75
2023/01/26 06:22:21;;;;;;;55.30;7.80;;;2.80;99.90;;;;;;5093341;28;20040;-76
2023/01/26 06:24:47;;;;;;;52.40;5.97;;;2.90;99.90;;;;;;5095098;28;20087;-75
2023/01/26 06:27:14;;;;;;;45.67;6.00;;;2.90;99.90;;;;;;5094407;28;20040;-75
2023/01/26 06:29:41;;;;;;;46.13;6.13;;;3.00;99.90;;;;;;5076716;28;20460;-76
2023/01/26 06:32:11;;;;;;;39.45;5.57;;;3.10;99.90;;;;;;5094078;28;20396;-76
2023/01/26 06:34:36;;;;;;;56.15;5.75;;;3.20;99.90;;;;;;5094583;28;20044;-76
2023/01/26 06:37:02;;;;;;;53.87;5.97;;;3.30;99.90;;;;;;5094619;28;20546;-76
2023/01/26 06:39:28;;;;;;;47.33;5.53;;;3.30;99.90;;;;;;5094320;28;20051;-76
2023/01/26 06:41:54;;;;;;;44.37;5.40;;;3.30;99.90;;;;;;5094554;28;20043;-76
2023/01/26 06:44:19;;;;;;;45.13;6.10;;;3.30;99.90;;;;;;5094240;28;20079;-76
2023/01/26 06:46:45;;;;;;;47.77;5.43;;;3.30;99.90;;;;;;5094081;28;20502;-76
2023/01/26 06:49:11;;;;;;;51.93;5.30;;;3.30;99.90;;;;;;5093028;28;20040;-76
2023/01/26 06:51:40;;;;;;;47.97;6.13;;;3.40;99.90;;;;;;5094275;28;20537;-76
2023/01/26 06:54:09;;;;;;;57.67;5.57;;;3.50;99.90;;;;;;5094331;28;20104;-76
2023/01/26 06:56:35;;;;;;;55.08;5.93;;;3.50;99.90;;;;;;5093135;28;20051;-76
2023/01/26 06:59:00;;;;;;;53.90;6.00;;;3.60;99.90;;;;;;5094168;28;20043;-76
2023/01/26 07:01:27;;;;;;;51.47;6.10;;;3.60;99.90;;;;;;5092982;28;20048;-76
2023/01/26 07:03:54;;;;;;;49.63;5.88;;;3.60;99.90;;;;;;5094226;28;20105;-76
2023/01/26 07:06:20;;;;;;;50.03;7.05;;;3.50;99.90;;;;;;5093588;28;20066;-76
2023/01/26 07:08:46;;;;;;;54.53;5.88;;;3.60;99.90;;;;;;5093996;28;20044;-76
2023/01/26 07:11:12;;;;;;;44.88;6.07;;;3.50;99.90;;;;;;5093721;28;20051;-77
2023/01/26 07:13:39;;;;;;;41.35;5.43;;;3.70;99.90;;;;;;5094087;28;20427;-76
2023/01/26 07:16:08;;;;;;;49.38;5.28;;;3.60;99.90;;;;;;5092942;28;20062;-76
2023/01/26 07:18:34;;;;;;;46.88;5.70;;;3.50;99.90;;;;;;5093701;28;20527;-76
2023/01/26 07:21:04;;;;;;;61.60;6.35;;;3.60;99.90;;;;;;5075898;28;20094;-76
2023/01/26 07:23:30;;;;;;;51.08;6.05;;;3.60;99.90;;;;;;5093522;28;20052;-77
2023/01/26 07:25:56;;;;;;;62.87;6.37;;;3.70;99.90;;;;;;5093715;28;20597;-76
2023/01/26 07:28:22;;;;;;;51.53;6.67;;;3.60;99.90;;;;;;5093249;28;20067;-76
2023/01/26 07:30:48;;;;;;;55.40;6.85;;;3.60;99.90;;;;;;5092935;28;20131;-75
2023/01/26 07:33:14;;;;;;;43.17;5.80;;;3.50;99.90;;;;;;5093220;28;20173;-76
2023/01/26 07:35:40;;;;;;;52.85;6.20;;;3.60;99.90;;;;;;5093820;28;20048;-76
2023/01/26 07:38:06;;;;;;;56.23;5.57;;;3.60;99.90;;;;;;5093423;28;20392;-76
2023/01/26 07:40:33;;;;;;;53.38;5.88;;;3.60;99.90;;;;;;5092942;28;20484;-76
2023/01/26 07:42:59;;;;;;;63.33;6.78;;;3.60;99.90;;;;;;5093445;28;20090;-76
2023/01/26 07:45:26;;;;;;;52.05;6.32;;;3.60;99.90;;;;;;5092214;28;20052;-76
2023/01/26 07:47:56;;;;;;;60.25;6.78;;;3.60;99.90;;;;;;5093302;28;20060;-76
2023/01/26 07:50:21;;;;;;;53.80;7.20;;;3.60;99.90;;;;;;5091878;28;20044;-77
2023/01/26 07:52:48;;;;;;;52.50;6.60;;;3.60;99.90;;;;;;5093291;28;20054;-77
2023/01/26 07:55:14;;;;;;;51.83;6.30;;;3.60;99.90;;;;;;5092055;28;20059;-77
2023/01/26 07:57:40;;;;;;;48.23;6.00;;;3.70;99.90;;;;;;5093301;28;20036;-76
2023/01/26 08:00:06;;;;;;;52.10;5.82;;;3.70;99.90;;;;;;5092235;28;20044;-77
2023/01/26 08:02:32;;;;;;;39.75;5.57;;;3.80;99.90;;;;;;5092973;28;20051;-77
2023/01/26 08:04:59;;;;;;;52.87;5.83;;;3.80;99.90;;;;;;5093223;28;20044;-77
2023/01/26 08:07:25;;;;;;;47.22;5.75;;;3.80;99.90;;;;;;5074840;28;20043;-77
2023/01/26 08:09:51;;;;;;;51.25;5.43;;;3.80;99.90;;;;;;5093089;28;20083;-77
2023/01/26 08:12:16;;;;;;;46.37;6.27;;;3.70;99.90;;;;;;5092915;28;20087;-76
2023/01/26 08:14:42;;;;;;;42.60;5.20;;;3.60;99.90;;;;;;5092781;28;20055;-74
2023/01/26 08:17:08;;;;;;;44.67;5.07;;;3.60;99.90;;;;;;5092459;28;20040;-77
2023/01/26 08:19:33;;;;;;;37.20;4.50;;;3.60;99.90;;;;;;5092666;28;20047;-75
2023/01/26 08:21:59;;;;;;;40.23;6.23;;;3.60;99.90;;;;;;5092639;28;20048;-75
2023/01/26 08:24:26;;;;;;;46.43;5.27;;;3.60;99.90;;;;;;5091606;28;20040;-75
2023/01/26 08:26:53;;;;;;;51.08;5.47;;;3.60;99.90;;;;;;5092996;28;20051;-74
2023/01/26 08:29:19;;;;;;;47.70;5.70;;;3.60;99.90;;;;;;5092430;28;20063;-74
2023/01/26 08:31:45;;;;;;;41.92;7.65;;;3.70;99.90;;;;;;5092896;28;20523;-74
2023/01/26 08:34:11;;;;;;;39.73;5.30;;;3.70;99.90;;;;;;5092066;28;20088;-74
2023/01/26 08:36:38;;;;;;;43.45;6.35;;;3.70;99.90;;;;;;5092669;28;20282;-74
2023/01/26 08:39:04;;;;;;;56.28;6.72;;;3.70;99.90;;;;;;5091677;28;20079;-74
2023/01/26 08:41:31;;;;;;;53.30;9.40;;;3.70;99.90;;;;;;5091487;28;20079;-75
2023/01/26 08:43:58;;;;;;;53.08;10.05;;;3.80;99.90;;;;;;5095658;28;20056;-74
2023/01/26 08:46:24;;;;;;;63.08;9.27;;;3.90;99.90;;;;;;5096468;28;20122;-75
2023/01/26 08:48:50;;;;;;;53.20;9.45;;;4.00;99.90;;;;;;5095630;28;20066;-75
2023/01/26 08:51:16;;;;;;;48.05;8.45;;;4.00;99.90;;;;;;5096829;28;20044;-74
2023/01/26 08:53:42;;;;;;;43.33;7.60;;;4.00;99.90;;;;;;5096408;28;20071;-75
2023/01/26 08:56:11;;;;;;;54.10;7.17;;;4.10;99.90;;;;;;5096784;28;20048;-74
2023/01/26 08:58:37;;;;;;;41.03;6.45;;;4.20;99.90;;;;;;5096303;28;20078;-75
2023/01/26 09:01:09;;;;;;;49.28;6.47;;;4.20;99.90;;;;;;5096561;28;20105;-75
2023/01/26 09:03:35;;;;;;;41.78;5.38;;;4.30;99.90;;;;;;5096061;28;20040;-75
2023/01/26 09:06:03;;;;;;;51.00;6.60;;;4.30;99.90;;;;;;5096351;28;20050;-75
2023/01/26 09:08:29;;;;;;;42.80;5.57;;;4.30;99.90;;;;;;5095154;28;20056;-74
2023/01/26 09:10:55;;;;;;;46.45;5.43;;;4.40;99.90;;;;;;5096353;28;20044;-74
2023/01/26 09:13:21;;;;;;;47.63;6.35;;;4.50;99.90;;;;;;5096443;28;20036;-76
2023/01/26 09:15:47;;;;;;;43.47;6.33;;;4.50;99.90;;;;;;5096484;28;20365;-75
2023/01/26 09:18:12;;;;;;;55.47;6.20;;;4.60;99.90;;;;;;5095260;28;20191;-75
2023/01/26 09:20:38;;;;;;;45.00;6.00;;;4.60;99.90;;;;;;5095302;28;20043;-75
2023/01/26 09:23:04;;;;;;;40.15;5.05;;;4.70;99.90;;;;;;5096204;28;20095;-75
2023/01/26 09:25:30;;;;;;;38.37;5.00;;;4.70;99.90;;;;;;5094605;28;20130;-75
2023/01/26 09:27:56;;;;;;;40.57;5.50;;;4.90;99.90;;;;;;5094340;28;20409;-76
2023/01/26 09:30:23;;;;;;;40.13;7.10;;;4.90;99.90;;;;;;5093983;28;20063;-75
2023/01/26 09:32:50;;;;;;;43.65;5.75;;;5.00;99.90;;;;;;5095437;28;20048;-76
2023/01/26 09:35:16;;;;;;;38.35;5.38;;;5.10;99.90;;;;;;5095354;28;20122;-77
2023/01/26 09:37:45;;;;;;;42.42;5.28;;;5.10;99.90;;;;;;5094942;28;20119;-75
2023/01/26 09:40:34;;;;;;;36.65;5.20;;;5.20;99.90;;;;;;5095325;28;20039;-74
2023/01/26 09:43:07;;;;;;;58.13;7.53;;;5.30;99.90;;;;;;5093053;28;20040;-75
2023/01/26 09:45:44;;;;;;;44.38;6.07;;;5.30;99.90;;;;;;5095006;28;20050;-75
2023/01/26 09:48:34;;;;;;;42.25;5.20;;;5.50;99.90;;;;;;5095189;28;20094;-75
2023/01/26 09:51:06;;;;;;;37.17;4.68;;;5.60;99.90;;;;;;5092836;28;20075;-75
2023/01/26 09:53:51;;;;;;;39.55;5.13;;;5.70;99.90;;;;;;5093959;28;20698;-75
2023/01/26 09:56:19;;;;;;;40.33;5.78;;;5.80;99.90;;;;;;5092590;28;20509;-76
2023/01/26 09:58:58;;;;;;;37.88;4.97;;;5.90;99.90;;;;;;5094768;28;20044;-76
2023/01/26 10:01:43;;;;;;;42.78;5.80;;;5.90;99.90;;;;;;5093414;28;20051;-77
2023/01/26 10:04:35;;;;;;;32.90;5.40;;;6.00;99.90;;;;;;5093783;28;20392;-75
2023/01/26 10:07:09;;;;;;;34.55;5.00;;;6.00;99.90;;;;;;5092717;28;20476;-76
2023/01/26 10:09:37;;;;;;;33.08;5.32;;;6.10;99.90;;;;;;5093810;28;20055;-75
2023/01/26 10:12:25;;;;;;;42.88;5.75;;;6.10;99.90;;;;;;5094997;28;20093;-74
2023/01/26 10:15:01;;;;;;;35.25;4.85;;;6.10;99.90;;;;;;5083469;28;20389;-76
2023/01/26 10:17:37;;;;;;;36.78;4.65;;;6.10;99.90;;;;;;5095206;28;20044;-74
2023/01/26 10:20:24;;;;;;;36.70;4.95;;;6.20;99.90;;;;;;5095098;28;20085;-75
2023/01/26 10:23:15;;;;;;;40.95;5.32;;;6.20;99.90;;;;;;5094858;28;20403;-75
2023/01/26 10:25:43;;;;;;;44.08;5.80;;;6.30;99.90;;;;;;5094841;28;20091;-84
2023/01/26 10:28:13;;;;;;;32.20;4.80;;;6.40;99.90;;;;;;5094952;28;20048;-83
2023/01/26 10:30:41;;;;;;;34.03;4.70;;;6.40;99.90;;;;;;5094606;28;20052;-83
2023/01/26 10:33:16;;;;;;;33.35;4.43;;;6.40;99.90;;;;;;5094918;28;20059;-83
2023/01/26 10:35:42;;;;;;;34.65;4.82;;;6.40;99.90;;;;;;5094537;28;20047;-83
2023/01/26 10:38:26;;;;;;;32.30;5.07;;;6.40;99.90;;;;;;5093898;28;20487;-79
2023/01/26 10:40:52;;;;;;;38.50;4.78;;;6.40;99.90;;;;;;5094357;28;20452;-80
2023/01/26 10:43:18;;;;;;;29.57;4.00;;;6.40;99.90;;;;;;5094649;28;20127;-80
2023/01/26 10:45:46;;;;;;;33.23;5.17;;;6.40;99.90;;;;;;5094373;28;20052;-79
2023/01/26 10:48:25;;;;;;;24.25;4.05;;;6.50;99.90;;;;;;5094425;28;20294;-79
2023/01/26 10:50:52;;;;;;;30.02;4.00;;;6.60;99.90;;;;;;5093107;28;20055;-80
2023/01/26 10:53:28;;;;;;;34.20;4.35;;;6.70;99.90;;;;;;5076494;28;20055;-81
2023/01/26 10:56:06;;;;;;;29.92;4.28;;;6.80;99.90;;;;;;5093699;28;20048;-77
2023/01/26 10:58:41;;;;;;;28.30;3.90;;;6.90;99.90;;;;;;5094423;28;20048;-80
2023/01/26 11:01:11;;;;;;;;;;;6.90;99.90;;;;;;5094593;28;20051;-80
2023/01/26 11:03:38;;;;;;;21.25;3.90;;;7.00;99.90;;;;;;5093985;28;19927;-81
2023/01/26 11:06:15;;;;;;;25.98;4.10;;;7.10;99.90;;;;;;5093670;28;20080;-82
2023/01/26 11:08:42;;;;;;;23.60;3.35;;;7.10;99.90;;;;;;5093947;28;20048;-82
2023/01/26 11:11:25;;;;;;;20.65;3.40;;;7.20;99.90;;;;;;5093173;28;20043;-82
2023/01/26 11:14:16;;;;;;;20.80;3.15;;;7.30;99.90;;;;;;5094189;28;20051;-82
2023/01/26 11:16:50;;;;;;;19.10;2.80;;;7.20;99.90;;;;;;5092524;28;20061;-76
2023/01/26 11:19:32;;;;;;;21.83;3.38;;;7.20;99.90;;;;;;5093448;28;20044;-76
2023/01/26 11:22:21;;;;;;;20.08;2.90;;;7.10;99.90;;;;;;5090824;28;20042;-76
2023/01/26 11:25:06;;;;;;;22.38;3.45;;;7.10;99.90;;;;;;5092152;28;20044;-76
2023/01/26 11:27:41;;;;;;;24.52;3.10;;;7.00;99.90;;;;;;5092646;28;20488;-77
2023/01/26 11:30:27;;;;;;;19.23;2.58;;;7.00;99.90;;;;;;5092297;28;20096;-76
2023/01/26 11:33:02;;;;;;;18.90;2.75;;;7.00;99.90;;;;;;5092264;28;20496;-76
2023/01/26 11:36:14;;;;;;;14.00;2.85;;;7.00;99.90;;;;;;5093190;28;20104;-77
2023/01/26 11:38:54;;;;;;;15.68;2.58;;;7.00;99.90;;;;;;5064054;28;20048;-75
2023/01/26 11:41:44;;;;;;;22.98;3.00;;;6.90;99.90;;;;;;5074181;28;20132;-75
2023/01/26 11:44:24;;;;;;;15.70;3.78;;;6.80;99.90;;;;;;5093561;28;20052;-74
2023/01/26 11:47:10;;;;;;;20.55;2.97;;;6.80;99.90;;;;;;5093221;28;20088;-77
2023/01/26 11:50:04;;;;;;;28.98;3.53;;;6.90;99.90;;;;;;5092585;28;20055;-76
2023/01/26 11:52:52;;;;;;;23.90;3.28;;;6.90;99.90;;;;;;5092799;28;20044;-77
2023/01/26 11:55:24;;;;;;;26.20;3.88;;;7.10;99.90;;;;;;5091678;28;20416;-77
2023/01/26 11:58:15;;;;;;;23.50;3.20;;;7.10;99.90;;;;;;5093025;28;20048;-75
2023/01/26 12:00:47;;;;;;;26.23;4.88;;;7.10;99.90;;;;;;5092049;28;20056;-79
2023/01/26 12:03:25;;;;;;;30.35;4.53;;;7.20;99.90;;;;;;5093283;28;20076;-76
2023/01/26 12:05:56;;;;;;;23.52;4.13;;;7.30;99.90;;;;;;5093117;28;20048;-76
2023/01/26 12:08:37;;;;;;;22.90;4.63;;;7.30;99.90;;;;;;5092979;28;20575;-75
2023/01/26 12:11:22;;;;;;;20.45;4.05;;;7.30;99.90;;;;;;5093001;28;20097;-75
2023/01/26 12:14:13;;;;;;;16.45;2.97;;;7.40;99.90;;;;;;5093055;28;20040;-77
2023/01/26 12:16:42;;;;;;;18.23;3.13;;;7.40;99.90;;;;;;5093280;28;20055;-78
2023/01/26 12:19:27;;;;;;;18.67;2.85;;;7.40;99.90;;;;;;5095636;28;20052;-77
2023/01/26 12:21:59;;;;;;;16.73;3.03;;;7.50;99.90;;;;;;5064359;28;20066;-75
2023/01/26 12:24:39;;;;;;;19.40;2.47;;;7.50;99.90;;;;;;5097409;28;20131;-76
2023/01/26 12:27:10;;;;;;;19.77;3.40;;;7.50;99.90;;;;;;5097045;28;20093;-77
2023/01/26 12:29:53;;;;;;;18.48;2.97;;;7.60;99.90;;;;;;5097069;28;20109;-74
2023/01/26 12:32:21;;;;;;;19.58;2.72;;;7.60;99.90;;;;;;5097392;28;20135;-74
2023/01/26 12:34:47;;;;;;;21.45;3.38;;;7.60;99.90;;;;;;5096955;28;20144;-78
2023/01/26 12:37:32;;;;;;;18.15;3.13;;;7.60;99.90;;;;;;5097193;28;20040;-77
2023/01/26 12:40:01;;;;;;;16.33;2.60;;;7.70;99.90;;;;;;5096854;28;20040;-76
2023/01/26 12:42:45;;;;;;;19.92;3.33;;;7.70;99.90;;;;;;5096876;28;20496;-77
2023/01/26 12:45:19;;;;;;;17.40;3.13;;;7.70;99.90;;;;;;5097110;28;20058;-76
2023/01/26 12:47:52;;;;;;;16.85;2.97;;;7.70;99.90;;;;;;5096812;28;20122;-83
2023/01/26 12:50:36;;;;;;;25.48;3.35;;;7.70;99.90;;;;;;5096799;28;20044;-77
2023/01/26 12:53:32;;;;;;;21.65;3.85;;;7.70;99.90;;;;;;5096656;28;20048;-79
2023/01/26 12:56:04;;;;;;;;;;;7.60;99.90;;;;;;5089967;28;20056;-76
2023/01/26 12:58:38;;;;;;;17.92;2.70;;;7.60;99.90;;;;;;5096563;28;19920;-75
2023/01/26 13:01:11;;;;;;;19.87;2.77;;;7.60;99.90;;;;;;5096414;28;20052;-75
2023/01/26 13:03:42;;;;;;;19.85;3.92;;;7.60;99.90;;;;;;5095181;28;20615;-74
2023/01/26 13:06:13;;;;;;;18.17;3.08;;;7.70;99.90;;;;;;5096061;28;20044;-75
2023/01/26 13:08:59;;;;;;;13.03;2.70;;;7.60;99.90;;;;;;5096158;28;20185;-74
2023/01/26 13:11:43;;;;;;;;;;;7.60;99.90;;;;;;5096697;28;20343;-74
2023/01/26 13:14:43;;;;;;;15.68;3.58;;;7.60;99.90;;;;;;5095987;28;19924;-75
2023/01/26 13:17:15;;;;;;;21.05;4.40;;;7.70;99.90;;;;;;5095639;28;20510;-76
2023/01/26 13:19:41;;;;;;;17.15;3.40;;;7.70;99.90;;;;;;5096272;28;20446;-79
2023/01/26 13:22:24;;;;;;;16.07;3.43;;;7.70;99.90;;;;;;5096037;28;20052;-78
2023/01/26 13:25:33;;;;;;;20.30;4.65;;;7.70;99.90;;;;;;5095935;28;20051;-77
2023/01/26 13:28:01;;;;;;;13.95;3.22;;;7.70;99.90;;;;;;5085575;28;20052;-77
2023/01/26 13:30:46;;;;;;;17.63;3.63;;;7.70;99.90;;;;;;5095624;28;20102;-76
2023/01/26 13:33:21;;;;;;;15.48;3.38;;;7.70;99.90;;;;;;5094620;28;20056;-76
2023/01/26 13:35:49;;;;;;;22.97;3.70;;;7.70;99.90;;;;;;5078292;28;20048;-76
2023/01/26 13:38:39;;;;;;;16.40;3.35;;;7.70;99.90;;;;;;5094874;28;20354;-75
2023/01/26 13:41:15;;;;;;;12.77;2.97;;;7.70;99.90;;;;;;5094320;28;20036;-75
2023/01/26 13:43:54;;;;;;;14.35;3.47;;;7.60;99.90;;;;;;5091471;28;20277;-82
2023/01/26 13:46:25;;;;;;;18.30;2.50;;;7.60;99.90;;;;;;5095433;28;20040;-76